createdAt,value
2018-06-08T00:00:30.989Z,55.95
2018-06-08T00:01:30.317Z,55.64
2018-06-08T00:02:30.257Z,55.9
2018-06-08T00:03:30.595Z,55.63
2018-06-08T00:04:30.179Z,55.63
2018-06-08T00:05:30.190Z,55.7
2018-06-08T00:06:30.168Z,55.83
2018-06-08T00:07:30.453Z,55.92
2018-06-08T00:08:30.331Z,55.7
2018-06-08T00:09:31.148Z,55.71
2018-06-08T00:10:30.476Z,55.82
2018-06-08T00:11:30.216Z,55.78
2018-06-08T00:12:30.232Z,55.77
2018-06-08T00:13:30.342Z,55.75
2018-06-08T00:14:30.537Z,55.79
2018-06-08T00:15:30.367Z,55.77
2018-06-08T00:16:30.274Z,55.77
2018-06-08T00:17:30.370Z,55.84
2018-06-08T00:18:30.333Z,55.73
2018-06-08T00:19:30.377Z,55.76
2018-06-08T00:20:30.360Z,55.72
2018-06-08T00:21:30.321Z,55.78
2018-06-08T00:22:30.368Z,55.86
2018-06-08T00:23:30.196Z,55.85
2018-06-08T00:24:30.202Z,55.85
2018-06-08T00:25:30.143Z,55.76
2018-06-08T00:26:40.241Z,55.76
2018-06-08T00:27:30.292Z,55.88
2018-06-08T00:28:30.323Z,55.93
2018-06-08T00:29:30.308Z,55.79
2018-06-08T00:30:30.428Z,55.85
2018-06-08T00:31:30.224Z,55.76
2018-06-08T00:32:30.371Z,55.96
2018-06-08T00:33:30.276Z,55.67
2018-06-08T00:34:30.224Z,55.87
2018-06-08T00:35:30.131Z,55.79
2018-06-08T00:36:30.241Z,55.84
2018-06-08T00:37:30.379Z,55.78
2018-06-08T00:38:30.298Z,55.87
2018-06-08T00:39:30.287Z,55.78
2018-06-08T00:40:30.198Z,55.75
2018-06-08T00:41:30.284Z,55.94
2018-06-08T00:42:30.281Z,55.73
2018-06-08T00:43:30.472Z,55.89
2018-06-08T00:44:30.351Z,55.86
2018-06-08T00:45:30.442Z,55.71
2018-06-08T00:46:30.228Z,55.79
2018-06-08T00:47:30.180Z,55.79
2018-06-08T00:48:30.432Z,55.79
2018-06-08T00:49:30.287Z,55.65
2018-06-08T00:50:30.367Z,55.77
2018-06-08T00:51:30.211Z,55.74
2018-06-08T00:52:30.374Z,55.79
2018-06-08T00:53:30.612Z,55.82
2018-06-08T00:54:30.234Z,55.89
2018-06-08T00:55:30.393Z,55.76
2018-06-08T00:56:30.419Z,55.9
2018-06-08T00:57:30.395Z,55.81
2018-06-08T00:58:30.399Z,55.71
2018-06-08T00:59:30.321Z,55.77
2018-06-08T01:00:30.180Z,55.8
2018-06-08T01:01:30.694Z,55.73
2018-06-08T01:02:30.366Z,55.81
2018-06-08T01:03:30.334Z,55.85
2018-06-08T01:04:30.180Z,55.83
2018-06-08T01:05:30.406Z,55.85
2018-06-08T01:06:30.447Z,55.81
2018-06-08T01:07:30.351Z,55.79
2018-06-08T01:08:30.118Z,55.81
2018-06-08T01:09:40.305Z,55.87
2018-06-08T01:10:30.315Z,55.82
2018-06-08T01:11:30.364Z,55.82
2018-06-08T01:12:30.180Z,55.81
2018-06-08T01:13:30.475Z,55.77
2018-06-08T01:14:30.138Z,55.8
2018-06-08T01:15:30.257Z,55.88
2018-06-08T01:16:30.364Z,55.85
2018-06-08T01:17:30.154Z,55.81
2018-06-08T01:18:30.192Z,55.74
2018-06-08T01:19:30.346Z,55.87
2018-06-08T01:20:30.228Z,55.79
2018-06-08T01:21:30.222Z,55.8
2018-06-08T01:22:30.202Z,55.71
2018-06-08T01:23:30.185Z,55.72
2018-06-08T01:24:30.258Z,55.84
2018-06-08T01:25:30.344Z,55.75
2018-06-08T01:26:30.317Z,55.81
2018-06-08T01:27:30.368Z,55.89
2018-06-08T01:28:30.433Z,55.85
2018-06-08T01:29:30.394Z,55.88
2018-06-08T01:30:30.431Z,55.82
2018-06-08T01:31:30.079Z,55.84
2018-06-08T01:32:30.239Z,55.94
2018-06-08T01:33:30.180Z,55.96
2018-06-08T01:34:30.140Z,55.79
2018-06-08T01:35:30.429Z,55.78
2018-06-08T01:36:30.248Z,55.78
2018-06-08T01:37:30.325Z,55.85
2018-06-08T01:38:30.420Z,56
2018-06-08T01:39:30.213Z,55.79
2018-06-08T01:40:30.257Z,55.82
2018-06-08T01:41:30.265Z,55.97
2018-06-08T01:42:30.265Z,55.85
2018-06-08T01:43:30.206Z,55.99
2018-06-08T01:44:30.243Z,55.84
2018-06-08T01:45:30.307Z,55.8
2018-06-08T01:46:30.218Z,55.92
2018-06-08T01:47:30.181Z,55.71
2018-06-08T01:48:30.208Z,55.97
2018-06-08T01:49:30.243Z,55.81
2018-06-08T01:50:30.296Z,55.8
2018-06-08T01:51:30.208Z,55.9
2018-06-08T01:52:40.237Z,55.81
2018-06-08T01:53:30.191Z,55.82
2018-06-08T01:54:30.208Z,55.93
2018-06-08T01:55:30.490Z,56.04
2018-06-08T01:56:30.392Z,55.89
2018-06-08T01:57:30.134Z,55.76
2018-06-08T01:58:30.312Z,55.88
2018-06-08T01:59:30.180Z,55.94
2018-06-08T02:00:30.259Z,55.7
2018-06-08T02:01:30.276Z,55.9
2018-06-08T02:02:30.265Z,55.84
2018-06-08T02:03:30.562Z,55.86
2018-06-08T02:04:30.240Z,55.93
2018-06-08T02:05:30.243Z,55.85
2018-06-08T02:06:30.160Z,55.85
2018-06-08T02:07:30.443Z,55.92
2018-06-08T02:08:30.415Z,55.81
2018-06-08T02:09:30.483Z,55.78
2018-06-08T02:10:30.284Z,55.92
2018-06-08T02:11:30.406Z,55.84
2018-06-08T02:12:30.224Z,55.78
2018-06-08T02:13:30.380Z,55.94
2018-06-08T02:14:30.406Z,55.99
2018-06-08T02:15:30.093Z,55.96
2018-06-08T02:16:30.452Z,55.92
2018-06-08T02:17:30.457Z,55.89
2018-06-08T02:18:30.272Z,55.86
2018-06-08T02:19:30.288Z,55.93
2018-06-08T02:20:30.340Z,55.97
2018-06-08T02:21:30.352Z,55.85
2018-06-08T02:22:30.317Z,55.98
2018-06-08T02:23:30.275Z,55.75
2018-06-08T02:24:30.179Z,55.9
2018-06-08T02:25:30.248Z,56.11
2018-06-08T02:26:30.193Z,55.99
2018-06-08T02:27:30.375Z,55.92
2018-06-08T02:28:30.284Z,55.91
2018-06-08T02:29:30.294Z,55.96
2018-06-08T02:30:30.348Z,55.77
2018-06-08T02:31:30.404Z,55.94
2018-06-08T02:32:30.297Z,55.77
2018-06-08T02:33:30.150Z,55.86
2018-06-08T02:34:30.453Z,55.91
2018-06-08T02:35:30.193Z,55.88
2018-06-08T02:36:30.201Z,55.99
2018-06-08T02:37:30.162Z,55.98
2018-06-08T02:38:30.285Z,55.87
2018-06-08T02:39:30.115Z,55.91
2018-06-08T02:40:30.237Z,55.82
2018-06-08T02:41:30.259Z,55.93
2018-06-08T02:42:30.503Z,55.89
2018-06-08T02:43:30.313Z,55.99
2018-06-08T02:44:30.251Z,56.02
2018-06-08T02:45:30.301Z,55.84
2018-06-08T02:46:30.537Z,55.95
2018-06-08T02:47:30.278Z,55.96
2018-06-08T02:48:30.160Z,55.81
2018-06-08T02:49:30.362Z,56.01
2018-06-08T02:50:30.252Z,55.92
2018-06-08T02:51:30.193Z,55.79
2018-06-08T02:52:30.344Z,55.91
2018-06-08T02:53:30.273Z,55.99
2018-06-08T02:54:30.390Z,55.87
2018-06-08T02:55:30.312Z,55.94
2018-06-08T02:56:30.325Z,55.95
2018-06-08T02:57:30.411Z,55.92
2018-06-08T02:58:30.391Z,55.87
2018-06-08T02:59:30.287Z,55.93
2018-06-08T03:00:30.393Z,55.9
2018-06-08T03:01:30.239Z,55.88
2018-06-08T03:02:30.329Z,55.92
2018-06-08T03:03:30.330Z,56.1
2018-06-08T03:04:30.355Z,55.88
2018-06-08T03:05:30.330Z,55.98
2018-06-08T03:06:30.054Z,56.07
2018-06-08T03:07:30.377Z,55.91
2018-06-08T03:08:30.426Z,55.89
2018-06-08T03:09:30.204Z,55.9
2018-06-08T03:10:30.655Z,55.94
2018-06-08T03:11:30.301Z,55.99
2018-06-08T03:12:30.330Z,55.99
2018-06-08T03:13:30.442Z,55.92
2018-06-08T03:14:30.223Z,55.77
2018-06-08T03:15:30.321Z,56.05
2018-06-08T03:16:30.304Z,55.84
2018-06-08T03:17:40.243Z,56.04
2018-06-08T03:18:30.286Z,55.87
2018-06-08T03:19:30.191Z,55.99
2018-06-08T03:20:30.234Z,56.12
2018-06-08T03:21:30.220Z,56.04
2018-06-08T03:22:30.194Z,55.99
2018-06-08T03:23:30.461Z,56
2018-06-08T03:24:30.271Z,55.82
2018-06-08T03:25:30.336Z,55.91
2018-06-08T03:26:30.241Z,55.88
2018-06-08T03:27:30.484Z,55.98
2018-06-08T03:28:30.212Z,55.9
2018-06-08T03:29:30.169Z,56.02
2018-06-08T03:30:30.329Z,56.19
2018-06-08T03:31:30.110Z,55.93
2018-06-08T03:32:30.337Z,56.12
2018-06-08T03:33:30.287Z,56.03
2018-06-08T03:34:30.336Z,56.04
2018-06-08T03:35:30.367Z,55.93
2018-06-08T03:36:30.360Z,56.06
2018-06-08T03:37:30.093Z,55.96
2018-06-08T03:38:30.329Z,56.05
2018-06-08T03:39:30.337Z,55.94
2018-06-08T03:40:30.137Z,56.02
2018-06-08T03:41:30.281Z,55.94
2018-06-08T03:42:30.234Z,55.99
2018-06-08T03:43:30.356Z,56
2018-06-08T03:44:30.285Z,55.99
2018-06-08T03:45:30.325Z,55.95
2018-06-08T03:46:30.332Z,55.94
2018-06-08T03:47:30.442Z,55.94
2018-06-08T03:48:30.497Z,55.91
2018-06-08T03:49:30.514Z,55.84
2018-06-08T03:50:30.242Z,55.81
2018-06-08T03:51:40.198Z,55.92
2018-06-08T03:52:30.128Z,56.04
2018-06-08T03:53:30.157Z,55.96
2018-06-08T03:54:30.548Z,55.95
2018-06-08T03:55:30.190Z,55.95
2018-06-08T03:56:30.142Z,55.95
2018-06-08T03:57:30.330Z,55.97
2018-06-08T03:58:30.084Z,55.93
2018-06-08T03:59:30.416Z,55.96
2018-06-08T04:00:30.169Z,56
2018-06-08T04:01:30.390Z,55.96
2018-06-08T04:02:30.543Z,55.95
2018-06-08T04:03:30.201Z,55.97
2018-06-08T04:04:30.289Z,55.84
2018-06-08T04:05:30.155Z,55.97
2018-06-08T04:06:30.266Z,55.73
2018-06-08T04:07:30.195Z,55.83
2018-06-08T04:08:30.259Z,55.99
2018-06-08T04:09:30.250Z,55.99
2018-06-08T04:10:30.216Z,55.96
2018-06-08T04:11:30.225Z,55.94
2018-06-08T04:12:30.599Z,55.99
2018-06-08T04:13:30.290Z,55.95
2018-06-08T04:14:30.169Z,55.9
2018-06-08T04:15:30.217Z,55.95
2018-06-08T04:16:30.162Z,56.01
2018-06-08T04:17:30.323Z,56.11
2018-06-08T04:18:30.188Z,55.88
2018-06-08T04:19:30.163Z,55.82
2018-06-08T04:20:30.288Z,55.91
2018-06-08T04:21:30.128Z,56.07
2018-06-08T04:22:30.311Z,56.01
2018-06-08T04:23:30.357Z,55.87
2018-06-08T04:24:30.313Z,55.99
2018-06-08T04:25:30.163Z,55.9
2018-06-08T04:26:30.302Z,55.97
2018-06-08T04:27:30.132Z,55.9
2018-06-08T04:28:30.269Z,55.85
2018-06-08T04:29:30.239Z,55.96
2018-06-08T04:30:30.358Z,55.98
2018-06-08T04:31:30.386Z,55.82
2018-06-08T04:32:30.302Z,55.91
2018-06-08T04:33:30.370Z,55.98
2018-06-08T04:34:30.312Z,56
2018-06-08T04:35:30.339Z,55.97
2018-06-08T04:36:30.116Z,55.95
2018-06-08T04:37:30.368Z,55.91
2018-06-08T04:38:30.198Z,55.83
2018-06-08T04:39:30.186Z,55.99
2018-06-08T04:40:30.438Z,55.81
2018-06-08T04:41:30.250Z,55.91
2018-06-08T04:42:30.287Z,55.98
2018-06-08T04:43:30.158Z,56.04
2018-06-08T04:44:30.142Z,55.9
2018-06-08T04:45:30.210Z,55.95
2018-06-08T04:46:30.366Z,55.98
2018-06-08T04:47:30.184Z,56.01
2018-06-08T04:48:30.313Z,55.84
2018-06-08T04:49:30.112Z,56.01
2018-06-08T04:50:30.301Z,55.87
2018-06-08T04:51:30.428Z,55.84
2018-06-08T04:52:30.308Z,55.87
2018-06-08T04:53:30.352Z,55.93
2018-06-08T04:54:30.201Z,55.95
2018-06-08T04:55:30.614Z,56.13
2018-06-08T04:56:30.288Z,55.92
2018-06-08T04:57:30.178Z,56.15
2018-06-08T04:58:30.144Z,55.83
2018-06-08T04:59:30.130Z,55.96
2018-06-08T05:00:30.204Z,55.97
2018-06-08T05:01:30.342Z,56.01
2018-06-08T05:02:30.329Z,55.86
2018-06-08T05:03:30.268Z,55.98
2018-06-08T05:04:30.210Z,56
2018-06-08T05:05:30.278Z,55.85
2018-06-08T05:06:30.362Z,56.07
2018-06-08T05:07:30.410Z,56.03
2018-06-08T05:08:30.290Z,55.84
2018-06-08T05:09:30.116Z,55.89
2018-06-08T05:10:30.199Z,55.88
2018-06-08T05:11:30.302Z,55.95
2018-06-08T05:12:30.237Z,55.99
2018-06-08T05:13:30.150Z,55.96
2018-06-08T05:14:30.178Z,55.94
2018-06-08T05:15:30.183Z,55.85
2018-06-08T05:16:30.129Z,55.9
2018-06-08T05:17:30.133Z,55.81
2018-06-08T05:18:30.117Z,55.89
2018-06-08T05:19:30.183Z,56.1
2018-06-08T05:20:30.449Z,55.91
2018-06-08T05:21:30.162Z,55.91
2018-06-08T05:22:30.311Z,55.79
2018-06-08T05:23:30.249Z,55.95
2018-06-08T05:24:30.351Z,55.94
2018-06-08T05:25:30.241Z,55.89
2018-06-08T05:26:30.271Z,55.96
2018-06-08T05:27:30.100Z,55.91
2018-06-08T05:28:30.238Z,55.86
2018-06-08T05:29:30.096Z,55.85
2018-06-08T05:30:30.186Z,55.96
2018-06-08T05:31:30.344Z,55.86
2018-06-08T05:32:30.423Z,55.92
2018-06-08T05:33:30.174Z,55.96
2018-06-08T05:34:30.240Z,55.96
2018-06-08T05:35:30.139Z,55.94
2018-06-08T05:36:30.288Z,55.82
2018-06-08T05:37:30.338Z,55.9
2018-06-08T05:38:30.322Z,55.81
2018-06-08T05:39:30.458Z,56.01
2018-06-08T05:40:30.012Z,55.92
2018-06-08T05:41:30.184Z,56.01
2018-06-08T05:42:30.168Z,55.89
2018-06-08T05:43:30.102Z,56.04
2018-06-08T05:44:30.375Z,55.98
2018-06-08T05:45:30.309Z,56.02
2018-06-08T05:46:30.354Z,55.98
2018-06-08T05:47:30.286Z,55.94
2018-06-08T05:48:30.122Z,55.9
2018-06-08T05:49:30.104Z,55.99
2018-06-08T05:50:30.201Z,55.8
2018-06-08T05:51:30.369Z,56.08
2018-06-08T05:52:30.146Z,55.91
2018-06-08T05:53:30.180Z,55.85
2018-06-08T05:54:30.084Z,55.93
2018-06-08T05:55:30.158Z,56.13
2018-06-08T05:56:30.251Z,56.18
2018-06-08T05:57:30.099Z,56
2018-06-08T05:58:30.320Z,56.05
2018-06-08T05:59:30.130Z,55.75
2018-06-08T06:00:30.353Z,56
2018-06-08T06:01:30.282Z,55.9
2018-06-08T06:02:30.457Z,55.92
2018-06-08T06:03:30.245Z,56.12
2018-06-08T06:04:30.309Z,55.87
2018-06-08T06:05:30.513Z,55.97
2018-06-08T06:06:30.264Z,55.81
2018-06-08T06:07:30.277Z,56.09
2018-06-08T06:08:30.266Z,56.1
2018-06-08T06:09:30.262Z,55.88
2018-06-08T06:10:30.248Z,55.98
2018-06-08T06:11:30.117Z,56.03
2018-06-08T06:12:30.328Z,55.98
2018-06-08T06:13:30.128Z,55.95
2018-06-08T06:14:30.194Z,55.94
2018-06-08T06:15:30.306Z,55.87
2018-06-08T06:16:30.164Z,55.97
2018-06-08T06:17:30.493Z,55.7
2018-06-08T06:18:30.440Z,55.82
2018-06-08T06:19:30.227Z,56.05
2018-06-08T06:20:40.244Z,55.84
2018-06-08T06:21:30.391Z,55.94
2018-06-08T06:22:30.194Z,56
2018-06-08T06:23:30.165Z,55.84
2018-06-08T06:24:30.180Z,55.9
2018-06-08T06:25:30.051Z,55.85
2018-06-08T06:26:30.210Z,55.95
2018-06-08T06:27:30.829Z,55.82
2018-06-08T06:28:30.305Z,56
2018-06-08T06:29:30.595Z,56.03
2018-06-08T06:30:30.079Z,56.02
2018-06-08T06:31:30.156Z,56.08
2018-06-08T06:32:30.327Z,55.95
2018-06-08T06:33:30.110Z,55.82
2018-06-08T06:34:30.103Z,55.8
2018-06-08T06:35:30.195Z,55.93
2018-06-08T06:36:30.217Z,55.88
2018-06-08T06:37:30.367Z,55.88
2018-06-08T06:38:30.188Z,55.89
2018-06-08T06:39:30.244Z,55.88
2018-06-08T06:40:30.334Z,55.92
2018-06-08T06:41:30.267Z,55.8
2018-06-08T06:42:30.239Z,56
2018-06-08T06:43:30.139Z,55.91
2018-06-08T06:44:30.192Z,55.83
2018-06-08T06:45:30.136Z,55.8
2018-06-08T06:46:30.046Z,55.95
2018-06-08T06:47:30.317Z,55.94
2018-06-08T06:48:30.185Z,55.96
2018-06-08T06:49:30.230Z,55.92
2018-06-08T06:50:30.371Z,56
2018-06-08T06:51:30.192Z,55.84
2018-06-08T06:52:30.186Z,55.87
2018-06-08T06:53:30.127Z,55.92
2018-06-08T06:54:30.190Z,55.95
2018-06-08T06:55:30.192Z,55.84
2018-06-08T06:56:30.192Z,55.98
2018-06-08T06:57:30.091Z,55.79
2018-06-08T06:58:30.134Z,55.99
2018-06-08T06:59:30.295Z,55.97
2018-06-08T07:00:30.304Z,55.72
2018-06-08T07:01:30.212Z,55.69
2018-06-08T07:02:30.352Z,55.83
2018-06-08T07:03:30.081Z,55.73
2018-06-08T07:04:30.384Z,55.89
2018-06-08T07:05:30.471Z,55.75
2018-06-08T07:06:30.445Z,55.65
2018-06-08T07:07:30.219Z,55.92
2018-06-08T07:08:30.345Z,55.7
2018-06-08T07:09:30.303Z,55.9
2018-06-08T07:10:30.162Z,55.75
2018-06-08T07:11:30.068Z,55.77
2018-06-08T07:12:30.086Z,55.82
2018-06-08T07:13:30.239Z,55.83
2018-06-08T07:14:30.243Z,55.76
2018-06-08T07:15:30.108Z,55.75
2018-06-08T07:16:30.234Z,55.98
2018-06-08T07:17:30.087Z,55.89
2018-06-08T07:18:30.233Z,55.82
2018-06-08T07:19:30.227Z,55.73
2018-06-08T07:20:30.284Z,55.88
2018-06-08T07:21:29.977Z,55.76
2018-06-08T07:22:30.033Z,55.79
2018-06-08T07:23:30.466Z,55.63
2018-06-08T07:24:30.272Z,55.61
2018-06-08T07:25:30.244Z,55.8
2018-06-08T07:26:30.163Z,55.89
2018-06-08T07:27:30.232Z,55.69
2018-06-08T07:28:30.239Z,55.81
2018-06-08T07:29:30.307Z,55.75
2018-06-08T07:30:30.313Z,55.73
2018-06-08T07:31:30.422Z,55.82
2018-06-08T07:32:30.004Z,56.24
2018-06-08T07:33:30.275Z,56.14
2018-06-08T07:34:30.118Z,56.27
2018-06-08T07:35:30.193Z,56.51
2018-06-08T07:36:30.164Z,56.04
2018-06-08T07:37:30.318Z,56.05
2018-06-08T07:38:30.173Z,56.43
2018-06-08T07:39:30.167Z,56.41
2018-06-08T07:40:30.128Z,56.33
2018-06-08T07:41:30.059Z,56.36
2018-06-08T07:42:30.306Z,56.24
2018-06-08T07:43:30.318Z,56.24
2018-06-08T07:44:30.181Z,56.14
2018-06-08T07:45:30.157Z,56.24
2018-06-08T07:46:30.072Z,56.1
2018-06-08T07:47:30.313Z,55.98
2018-06-08T07:48:30.247Z,56.07
2018-06-08T07:49:30.368Z,56.1
2018-06-08T07:50:30.085Z,56.18
2018-06-08T07:51:30.323Z,56.04
2018-06-08T07:52:30.253Z,55.93
2018-06-08T07:53:30.260Z,56.01
2018-06-08T07:54:30.350Z,55.94
2018-06-08T07:55:30.264Z,55.89
2018-06-08T07:56:30.293Z,55.86
2018-06-08T07:57:30.204Z,55.86
2018-06-08T07:58:30.107Z,55.96
2018-06-08T07:59:30.034Z,55.97
2018-06-08T08:00:30.142Z,55.95
2018-06-08T08:01:30.304Z,55.98
2018-06-08T08:02:30.212Z,55.92
2018-06-08T08:03:30.308Z,55.96
2018-06-08T08:04:30.152Z,55.9
2018-06-08T08:05:30.176Z,55.87
2018-06-08T08:06:30.394Z,55.9
2018-06-08T08:07:30.190Z,55.95
2018-06-08T08:08:30.241Z,55.86
2018-06-08T08:09:30.159Z,55.87
2018-06-08T08:10:30.103Z,55.88
2018-06-08T08:11:30.245Z,55.91
2018-06-08T08:12:30.312Z,55.89
2018-06-08T08:13:30.249Z,55.95
2018-06-08T08:14:30.455Z,55.8
2018-06-08T08:15:30.316Z,55.92
2018-06-08T08:16:30.570Z,55.85
2018-06-08T08:17:30.250Z,55.82
2018-06-08T08:18:30.488Z,55.88
2018-06-08T08:19:30.173Z,56.05
2018-06-08T08:20:30.089Z,55.74
2018-06-08T08:21:30.531Z,55.91
2018-06-08T08:22:30.428Z,56
2018-06-08T08:23:30.634Z,55.77
2018-06-08T08:24:30.718Z,55.76
2018-06-08T08:25:30.165Z,55.88
2018-06-08T08:26:30.427Z,55.93
2018-06-08T08:27:30.068Z,55.74
2018-06-08T08:28:30.328Z,55.92
2018-06-08T08:29:30.396Z,55.95
2018-06-08T08:30:30.273Z,55.86
2018-06-08T08:31:30.181Z,55.89
2018-06-08T08:32:30.440Z,55.81
2018-06-08T08:33:30.440Z,55.87
2018-06-08T08:34:30.155Z,55.87
2018-06-08T08:35:30.167Z,55.82
2018-06-08T08:36:30.306Z,55.82
2018-06-08T08:37:30.150Z,55.81
2018-06-08T08:38:30.411Z,55.79
2018-06-08T08:39:30.147Z,55.81
2018-06-08T08:40:30.369Z,55.73
2018-06-08T08:41:30.387Z,55.64
2018-06-08T08:42:30.245Z,55.73
2018-06-08T08:43:30.141Z,55.86
2018-06-08T08:44:30.198Z,55.88
2018-06-08T08:45:30.139Z,55.73
2018-06-08T08:46:30.297Z,55.81
2018-06-08T08:47:30.213Z,55.79
2018-06-08T08:48:30.193Z,55.75
2018-06-08T08:49:30.133Z,55.79
2018-06-08T08:50:30.079Z,55.81
2018-06-08T08:51:30.316Z,55.85
2018-06-08T08:52:30.261Z,55.89
2018-06-08T08:53:30.131Z,55.73
2018-06-08T08:54:30.193Z,55.78
2018-06-08T08:55:30.103Z,55.76
2018-06-08T08:56:30.387Z,55.89
2018-06-08T08:57:30.228Z,55.8
2018-06-08T08:58:30.076Z,55.7
2018-06-08T08:59:29.965Z,55.78
2018-06-08T09:00:30.068Z,55.83
2018-06-08T09:01:30.301Z,55.8
2018-06-08T09:02:30.134Z,55.82
2018-06-08T09:03:30.373Z,55.68
2018-06-08T09:04:30.161Z,55.87
2018-06-08T09:05:30.251Z,55.78
2018-06-08T09:06:30.241Z,55.72
2018-06-08T09:07:30.057Z,55.74
2018-06-08T09:08:30.069Z,55.72
2018-06-08T09:09:30.213Z,55.76
2018-06-08T09:10:30.300Z,55.78
2018-06-08T09:11:30.393Z,55.68
2018-06-08T09:12:30.141Z,55.58
2018-06-08T09:13:30.104Z,55.77
2018-06-08T09:14:30.235Z,55.66
2018-06-08T09:15:30.249Z,55.7
2018-06-08T09:16:30.264Z,55.85
2018-06-08T09:17:30.237Z,55.72
2018-06-08T09:18:30.157Z,55.77
2018-06-08T09:19:30.055Z,55.72
2018-06-08T09:20:30.291Z,55.91
2018-06-08T09:21:30.201Z,55.78
2018-06-08T09:22:30.101Z,55.78
2018-06-08T09:23:30.444Z,55.91
2018-06-08T09:24:30.131Z,55.88
2018-06-08T09:25:30.199Z,55.76
2018-06-08T09:26:30.203Z,55.8
2018-06-08T09:27:30.344Z,55.83
2018-06-08T09:28:30.105Z,55.79
2018-06-08T09:29:30.171Z,55.61
2018-06-08T09:30:30.177Z,55.7
2018-06-08T09:31:30.095Z,55.69
2018-06-08T09:32:30.125Z,55.91
2018-06-08T09:33:30.127Z,55.71
2018-06-08T09:34:30.122Z,55.68
2018-06-08T09:35:30.164Z,55.79
2018-06-08T09:36:30.069Z,55.73
2018-06-08T09:37:30.184Z,55.82
2018-06-08T09:38:30.314Z,55.76
2018-06-08T09:39:30.064Z,55.72
2018-06-08T09:40:30.164Z,55.76
2018-06-08T09:41:30.131Z,55.76
2018-06-08T09:42:30.283Z,55.76
2018-06-08T09:43:30.344Z,55.76
2018-06-08T09:44:30.393Z,55.81
2018-06-08T09:45:30.283Z,55.62
2018-06-08T09:46:30.178Z,55.75
2018-06-08T09:47:30.171Z,55.64
2018-06-08T09:48:30.086Z,55.76
2018-06-08T09:49:30.334Z,55.68
2018-06-08T09:50:30.057Z,55.77
2018-06-08T09:51:30.663Z,55.72
2018-06-08T09:52:30.342Z,55.75
2018-06-08T09:53:30.032Z,55.75
2018-06-08T09:54:30.100Z,55.72
2018-06-08T09:55:30.223Z,55.77
2018-06-08T09:56:30.137Z,55.75
2018-06-08T09:57:30.177Z,55.72
2018-06-08T09:58:30.101Z,55.57
2018-06-08T09:59:30.199Z,55.8
2018-06-08T10:00:30.092Z,55.64
2018-06-08T10:01:30.017Z,55.86
2018-06-08T10:02:30.028Z,55.63
2018-06-08T10:03:30.197Z,55.64
2018-06-08T10:04:30.275Z,55.75
2018-06-08T10:05:30.188Z,55.9
2018-06-08T10:06:30.097Z,55.58
2018-06-08T10:07:30.119Z,55.74
2018-06-08T10:08:30.281Z,55.88
2018-06-08T10:09:30.171Z,55.84
2018-06-08T10:10:30.023Z,55.61
2018-06-08T10:11:30.275Z,55.57
2018-06-08T10:12:30.273Z,55.65
2018-06-08T10:13:30.289Z,55.76
2018-06-08T10:14:30.308Z,55.82
2018-06-08T10:15:30.174Z,55.89
2018-06-08T10:16:30.259Z,55.56
2018-06-08T10:17:30.241Z,55.69
2018-06-08T10:18:30.056Z,55.76
2018-06-08T10:19:30.051Z,55.75
2018-06-08T10:20:30.172Z,55.79
2018-06-08T10:21:30.199Z,55.75
2018-06-08T10:22:30.098Z,55.67
2018-06-08T10:23:30.215Z,55.77
2018-06-08T10:24:30.303Z,55.62
2018-06-08T10:25:30.171Z,55.87
2018-06-08T10:26:30.290Z,55.58
2018-06-08T10:27:30.243Z,55.65
2018-06-08T10:28:30.043Z,55.79
2018-06-08T10:29:30.223Z,55.68
2018-06-08T10:30:30.305Z,55.75
2018-06-08T10:31:30.307Z,55.58
2018-06-08T10:32:30.088Z,55.67
2018-06-08T10:33:30.084Z,55.82
2018-06-08T10:34:30.411Z,55.71
2018-06-08T10:35:30.251Z,55.65
2018-06-08T10:36:30.070Z,55.64
2018-06-08T10:37:30.371Z,55.66
2018-06-08T10:38:30.032Z,55.67
2018-06-08T10:39:29.987Z,55.67
2018-06-08T10:40:30.274Z,55.67
2018-06-08T10:41:30.031Z,55.65
2018-06-08T10:42:30.185Z,55.64
2018-06-08T10:43:30.137Z,55.69
2018-06-08T10:44:30.226Z,55.69
2018-06-08T10:45:30.201Z,55.64
2018-06-08T10:46:30.234Z,55.65
2018-06-08T10:47:30.222Z,55.75
2018-06-08T10:48:30.074Z,55.84
2018-06-08T10:49:30.297Z,55.69
2018-06-08T10:50:30.194Z,55.62
2018-06-08T10:51:30.235Z,55.66
2018-06-08T10:52:30.265Z,55.65
2018-06-08T10:53:30.177Z,55.62
2018-06-08T10:54:30.318Z,55.7
2018-06-08T10:55:30.275Z,55.55
2018-06-08T10:56:30.157Z,55.62
2018-06-08T10:57:30.629Z,55.77
2018-06-08T10:58:30.431Z,55.67
2018-06-08T10:59:30.047Z,55.72
2018-06-08T11:00:30.140Z,55.61
2018-06-08T11:01:30.203Z,55.67
2018-06-08T11:02:30.044Z,55.66
2018-06-08T11:03:30.249Z,55.64
2018-06-08T11:04:30.259Z,55.67
2018-06-08T11:05:30.535Z,55.79
2018-06-08T11:06:30.157Z,55.71
2018-06-08T11:07:30.187Z,55.69
2018-06-08T11:08:30.123Z,55.71
2018-06-08T11:09:30.097Z,55.6
2018-06-08T11:10:30.018Z,55.56
2018-06-08T11:11:30.098Z,55.67
2018-06-08T11:12:30.110Z,55.71
2018-06-08T11:13:30.223Z,55.72
2018-06-08T11:14:30.291Z,55.67
2018-06-08T11:15:30.126Z,55.58
2018-06-08T11:16:30.127Z,55.85
2018-06-08T11:17:30.064Z,55.65
2018-06-08T11:18:30.168Z,55.76
2018-06-08T11:19:29.970Z,55.65
2018-06-08T11:20:30.120Z,55.74
2018-06-08T11:21:30.293Z,55.64
2018-06-08T11:22:30.063Z,55.64
2018-06-08T11:23:30.110Z,55.56
2018-06-08T11:24:30.109Z,55.61
2018-06-08T11:25:30.013Z,55.65
2018-06-08T11:26:30.229Z,55.69
2018-06-08T11:27:30.110Z,55.57
2018-06-08T11:28:30.033Z,55.65
2018-06-08T11:29:30.044Z,55.75
2018-06-08T11:30:30.165Z,55.63
2018-06-08T11:31:30.020Z,55.63
2018-06-08T11:32:30.128Z,55.71
2018-06-08T11:33:30.350Z,55.67
2018-06-08T11:34:30.072Z,55.66
2018-06-08T11:35:30.225Z,55.63
2018-06-08T11:36:30.316Z,55.63
2018-06-08T11:37:29.998Z,55.66
2018-06-08T11:38:30.131Z,55.64
2018-06-08T11:39:30.428Z,55.75
2018-06-08T11:40:30.272Z,55.67
2018-06-08T11:41:30.310Z,55.64
2018-06-08T11:42:30.158Z,55.72
2018-06-08T11:43:30.105Z,55.5
2018-06-08T11:44:30.044Z,55.86
2018-06-08T11:45:30.141Z,55.6
2018-06-08T11:46:30.190Z,55.67
2018-06-08T11:47:30.825Z,55.71
2018-06-08T11:48:30.114Z,55.62
2018-06-08T11:49:30.164Z,55.65
2018-06-08T11:50:30.240Z,55.85
2018-06-08T11:51:30.151Z,55.67
2018-06-08T11:52:30.255Z,55.73
2018-06-08T11:53:30.153Z,55.56
2018-06-08T11:54:30.166Z,55.6
2018-06-08T11:55:30.202Z,55.75
2018-06-08T11:56:30.159Z,55.53
2018-06-08T11:57:30.103Z,55.72
2018-06-08T11:58:30.105Z,55.72
2018-06-08T11:59:30.058Z,55.69
2018-06-08T12:00:30.137Z,55.78
2018-06-08T12:01:30.304Z,55.7
2018-06-08T12:02:30.242Z,55.63
2018-06-08T12:03:30.035Z,55.78
2018-06-08T12:04:30.265Z,55.79
2018-06-08T12:05:30.058Z,55.61
2018-06-08T12:06:30.218Z,55.56
2018-06-08T12:07:30.204Z,55.65
2018-06-08T12:08:40.080Z,55.51
2018-06-08T12:09:30.073Z,55.57
2018-06-08T12:10:30.114Z,55.59
2018-06-08T12:11:30.121Z,55.67
2018-06-08T12:12:30.038Z,55.65
2018-06-08T12:13:29.996Z,55.73
2018-06-08T12:14:30.088Z,55.63
2018-06-08T12:15:30.258Z,55.63
2018-06-08T12:16:30.202Z,55.66
2018-06-08T12:17:30.127Z,55.71
2018-06-08T12:18:30.181Z,55.73
2018-06-08T12:19:30.107Z,55.7
2018-06-08T12:20:30.212Z,55.71
2018-06-08T12:21:29.983Z,55.49
2018-06-08T12:22:30.073Z,55.56
2018-06-08T12:23:30.153Z,55.69
2018-06-08T12:24:30.189Z,55.51
2018-06-08T12:25:30.249Z,55.82
2018-06-08T12:26:30.161Z,55.65
2018-06-08T12:27:30.193Z,55.61
2018-06-08T12:28:30.019Z,55.73
2018-06-08T12:29:30.124Z,55.64
2018-06-08T12:30:30.003Z,55.56
2018-06-08T12:31:30.196Z,55.65
2018-06-08T12:32:30.520Z,55.47
2018-06-08T12:33:30.223Z,55.71
2018-06-08T12:34:30.035Z,55.69
2018-06-08T12:35:30.202Z,55.66
2018-06-08T12:36:30.167Z,55.72
2018-06-08T12:37:30.263Z,55.74
2018-06-08T12:38:30.026Z,55.63
2018-06-08T12:39:30.138Z,55.64
2018-06-08T12:40:30.180Z,55.68
2018-06-08T12:41:30.076Z,55.64
2018-06-08T12:42:30.353Z,55.71
2018-06-08T12:43:30.206Z,55.62
2018-06-08T12:44:29.993Z,55.57
2018-06-08T12:45:30.224Z,55.88
2018-06-08T12:46:30.317Z,55.72
2018-06-08T12:47:30.234Z,55.71
2018-06-08T12:48:30.161Z,55.68
2018-06-08T12:49:30.236Z,55.61
2018-06-08T12:50:30.079Z,55.56
2018-06-08T12:51:30.038Z,55.55
2018-06-08T12:52:30.321Z,55.64
2018-06-08T12:53:30.168Z,55.6
2018-06-08T12:54:30.124Z,55.53
2018-06-08T12:55:29.987Z,55.54